Stations météo

réclame
Mon MeteoGroup
Glen Ogle, Grande-Bretagne (3148): Température de l'air & dewpoint: 23.11.2020 07:00:00 - 29.11.2020 07:00:00 (GMT)Glen Ogle, Grande-Bretagne (3148): Vitesse du vent & gusts: 23.11.2020 07:00:00 - 29.11.2020 07:00:00 (GMT)Glen Ogle, Grande-Bretagne (3148): Direction du vent: 23.11.2020 07:00:00 - 29.11.2020 07:00:00 (GMT)
Date & Time tt [°C] td [°C] ff [km/h] ff [knt] fx [km/h] fx [knt] dd
29.11.2020 07:00:00 3,3 2,8 2 1 - - SE
29.11.2020 06:00:00 2,6 2,1 4 2 - - E
29.11.2020 05:00:00 1,6 1,2 2 1 - - ESE
29.11.2020 04:00:00 1,7 1,3 4 2 - - SE
29.11.2020 03:00:00 1,7 1,0 5 3 - - SSE
29.11.2020 02:00:00 2,0 1,4 13 7 - - SSE
29.11.2020 01:00:00 1,2 0,8 5 3 - - SE
29.11.2020 00:00:00 1,3 0,6 2 1 - - ENE
28.11.2020 23:00:00 1,5 -0,2 4 2 - - SE
28.11.2020 22:00:00 1,2 0,7 4 2 - - NNW
28.11.2020 21:00:00 0,7 0,6 2 1 - - NE
28.11.2020 20:00:00 0,5 0,3 4 2 - - SE
28.11.2020 19:00:00 1,1 1,0 18 10 - - SE
28.11.2020 18:00:00 1,0 0,9 21 11 - - ESE
28.11.2020 17:00:00 1,9 1,4 18 10 - - ESE
28.11.2020 16:00:00 2,4 1,8 16 9 - - ESE
28.11.2020 15:00:00 3,1 -2,7 4 2 - - S
28.11.2020 14:00:00 2,9 -3,9 2 1 - - WSW
28.11.2020 13:00:00 2,2 -5,7 4 2 - - N
28.11.2020 12:00:00 2,2 0,2 4 2 - - S
28.11.2020 11:00:00 1,8 -4,0 2 1 - - WNW
28.11.2020 10:00:00 1,8 1,8 5 3 - - SSE
28.11.2020 09:00:00 1,2 1,2 8 4 - - S
28.11.2020 08:00:00 1,1 1,1 9 5 - - SSE
28.11.2020 07:00:00 1,1 1,1 5 3 - - S
28.11.2020 06:00:00 1,3 0,9 16 9 - - SSE
28.11.2020 05:00:00 1,5 0,8 16 9 - - SSE
28.11.2020 04:00:00 1,2 0,9 4 2 - - SSE
28.11.2020 03:00:00 1,1 0,7 2 1 - - SW
28.11.2020 02:00:00 1,2 0,8 13 7 - - SE
28.11.2020 01:00:00 0,8 0,8 15 8 - - SE
28.11.2020 00:00:00 1,1 0,8 22 12 - - SSE
27.11.2020 23:00:00 1,6 0,7 15 8 - - SSE
27.11.2020 22:00:00 1,3 1,1 13 7 - - SSE
27.11.2020 21:00:00 1,2 1,2 29 16 - - SSE
27.11.2020 20:00:00 1,5 1,5 18 10 - - SSE
27.11.2020 19:00:00 2,3 2,3 9 5 - - SSE
27.11.2020 18:00:00 2,4 2,4 8 4 - - SSE
27.11.2020 17:00:00 2,4 2,4 4 2 - - SSE
27.11.2020 16:00:00 2,5 2,5 8 4 - - W
27.11.2020 15:00:00 2,6 2,6 4 2 - - W
27.11.2020 14:00:00 2,5 2,5 8 4 - - WNW
27.11.2020 13:00:00 2,6 2,5 8 4 - - W
27.11.2020 12:00:00 2,5 2,4 8 4 - - W
27.11.2020 11:00:00 2,6 2,3 5 3 - - S
27.11.2020 10:00:00 2,8 2,2 13 7 - - S
27.11.2020 09:00:00 2,5 2,5 11 6 - - S
27.11.2020 08:00:00 2,5 2,5 13 7 - - S
27.11.2020 07:00:00 2,4 2,4 9 5 - - S
27.11.2020 06:00:00 2,4 2,4 5 3 - - SSW
27.11.2020 05:00:00 2,5 2,3 9 5 - - S
27.11.2020 04:00:00 2,6 2,2 13 7 - - S
27.11.2020 03:00:00 2,3 2,3 11 6 - - W
27.11.2020 02:00:00 2,5 2,3 8 4 - - W
27.11.2020 01:00:00 2,5 2,4 11 6 - - W
27.11.2020 00:00:00 2,3 2,3 16 9 - - W
26.11.2020 23:00:00 2,2 2,2 18 10 - - W
26.11.2020 22:00:00 2,5 2,5 16 9 - - W
26.11.2020 21:00:00 2,7 2,7 22 12 - - W
26.11.2020 20:00:00 2,8 2,8 15 8 - - W
26.11.2020 19:00:00 2,8 2,6 16 9 - - S
26.11.2020 18:00:00 2,8 2,3 18 10 - - S
26.11.2020 17:00:00 2,8 1,8 13 7 - - SSW
26.11.2020 16:00:00 2,5 2,4 13 7 - - WSW
26.11.2020 15:00:00 2,2 2,1 15 8 - - W
26.11.2020 14:00:00 2,1 1,6 15 8 - - W
26.11.2020 13:00:00 2,1 0,8 16 9 - - W
26.11.2020 12:00:00 2,1 1,4 18 10 - - W
26.11.2020 11:00:00 2,1 0,5 9 5 - - WNW
26.11.2020 10:00:00 2,4 1,0 8 4 - - W
26.11.2020 09:00:00 1,9 1,8 4 2 - - N
26.11.2020 08:00:00 2,4 2,2 2 1 - - NNE
26.11.2020 07:00:00 2,7 2,5 5 3 - - NNW
26.11.2020 06:00:00 2,2 2,1 4 2 - - N
26.11.2020 05:00:00 2,4 2,2 5 3 - - NNW
26.11.2020 04:00:00 2,7 2,0 11 6 - - NNW
26.11.2020 03:00:00 2,7 2,4 4 2 - - NNE
26.11.2020 02:00:00 3,4 2,5 15 8 - - N
26.11.2020 01:00:00 3,3 2,2 16 9 - - NW
26.11.2020 00:00:00 3,4 2,8 9 5 - - NNW
25.11.2020 23:00:00 3,6 2,8 15 8 - - NNW
25.11.2020 22:00:00 4,0 3,3 15 8 - - NNW
25.11.2020 21:00:00 3,8 3,7 13 7 - - NNW
25.11.2020 20:00:00 3,4 3,4 21 11 - - NW
25.11.2020 19:00:00 3,5 3,5 15 8 - - WNW
25.11.2020 18:00:00 3,6 3,6 15 8 - - W
25.11.2020 17:00:00 3,6 3,6 16 9 - - W
25.11.2020 16:00:00 3,6 3,6 15 8 - - W
25.11.2020 15:00:00 3,6 3,4 16 9 - - W
25.11.2020 14:00:00 3,5 3,4 21 11 - - WNW
25.11.2020 13:00:00 3,5 3,4 16 9 - - W
25.11.2020 12:00:00 3,3 2,9 13 7 - - W
25.11.2020 11:00:00 3,6 1,9 9 5 - - SW
25.11.2020 10:00:00 3,7 2,0 15 8 - - SSW
25.11.2020 09:00:00 3,2 2,5 16 9 - - WSW
25.11.2020 08:00:00 3,3 2,3 13 7 - - SSW
25.11.2020 07:00:00 3,3 1,9 11 6 - - SSW
25.11.2020 06:00:00 3,1 2,2 13 7 - - SSW
25.11.2020 05:00:00 3,2 1,7 22 12 - - SSW
25.11.2020 04:00:00 2,5 2,0 11 6 - - SSE
25.11.2020 03:00:00 2,1 1,8 8 4 - - NW
25.11.2020 02:00:00 2,5 2,4 16 9 - - W
25.11.2020 01:00:00 2,4 2,1 22 12 - - W
25.11.2020 00:00:00 2,3 2,2 29 16 - - W
24.11.2020 23:00:00 2,2 2,2 29 16 - - W
24.11.2020 22:00:00 1,9 1,9 24 13 - - W
24.11.2020 21:00:00 1,9 1,9 29 16 - - WNW
24.11.2020 20:00:00 2,2 2,2 24 13 - - W
24.11.2020 19:00:00 2,4 2,4 35 19 - - W
24.11.2020 18:00:00 3,0 3,0 28 15 67 36 W
24.11.2020 17:00:00 7,2 7,2 52 28 96 52 S
24.11.2020 16:00:00 7,0 7,0 61 33 98 53 S
24.11.2020 15:00:00 7,2 7,2 63 34 100 54 S
24.11.2020 14:00:00 7,6 7,5 70 38 117 63 S
24.11.2020 13:00:00 7,9 7,9 54 29 80 43 S
24.11.2020 12:00:00 6,9 6,9 41 22 72 39 S
24.11.2020 11:00:00 6,5 6,5 48 26 85 46 S
24.11.2020 10:00:00 6,6 6,6 52 28 76 41 S
24.11.2020 09:00:00 6,5 6,5 35 19 57 31 S
24.11.2020 08:00:00 6,3 6,3 37 20 54 29 S
24.11.2020 07:00:00 6,3 6,3 29 16 - - S
24.11.2020 06:00:00 6,0 5,9 29 16 50 27 S
24.11.2020 05:00:00 6,3 5,5 29 16 - - SSW
24.11.2020 04:00:00 6,0 5,6 15 8 - - WSW
24.11.2020 03:00:00 6,2 5,4 24 13 48 26 SW
24.11.2020 02:00:00 6,0 5,9 24 13 - - SW
24.11.2020 01:00:00 6,9 6,1 34 18 61 33 SW
24.11.2020 00:00:00 7,3 5,6 39 21 55 30 SW
23.11.2020 23:00:00 6,7 5,7 31 17 63 34 W
23.11.2020 22:00:00 7,2 6,3 48 26 68 37 WSW
23.11.2020 21:00:00 7,7 7,5 41 22 65 35 SSW
23.11.2020 20:00:00 7,2 7,1 39 21 67 36 S
23.11.2020 19:00:00 6,8 6,8 46 25 70 38 S
23.11.2020 18:00:00 6,5 6,5 42 23 72 39 S
23.11.2020 17:00:00 6,4 5,9 42 23 80 43 SSW
23.11.2020 16:00:00 6,0 5,7 37 20 81 44 SSW
23.11.2020 15:00:00 5,6 5,6 42 23 81 44 S
23.11.2020 14:00:00 4,7 4,6 54 29 80 43 S
23.11.2020 13:00:00 3,8 3,8 54 29 74 40 S
23.11.2020 12:00:00 3,3 3,2 46 25 78 42 SSW
23.11.2020 11:00:00 3,2 1,9 46 25 80 43 SSW
23.11.2020 10:00:00 3,0 1,3 50 27 72 39 SSW
23.11.2020 09:00:00 3,1 1,7 46 25 65 35 SSW
23.11.2020 08:00:00 3,7 1,4 48 26 76 41 SSW
23.11.2020 07:00:00 3,9 2,3 41 22 63 34 SSW

tt = Température de l'air
td = dewpoint
ff = Vitesse du vent
fx = gusts
dd = Direction du vent

stations d'obs. à proximité